sensor_id;sensor_type;location;lat;lon;timestamp;P1;durP1;ratioP1;P2;durP2;ratioP2
2001;SDS011;1003;48.002;7.788;2023-04-16T00:01:03;14.87;;;8.83;;
2001;SDS011;1003;48.002;7.788;2023-04-16T00:03:31;13.53;;;8.20;;
2001;SDS011;1003;48.002;7.788;2023-04-16T00:05:58;15.57;;;9.43;;
2001;SDS011;1003;48.002;7.788;2023-04-16T00:08:25;13.77;;;8.90;;
2001;SDS011;1003;48.002;7.788;2023-04-16T00:10:52;13.40;;;8.97;;
2001;SDS011;1003;48.002;7.788;2023-04-16T00:13:21;13.67;;;8.70;;
2001;SDS011;1003;48.002;7.788;2023-04-16T00:15:48;13.67;;;8.60;;
2001;SDS011;1003;48.002;7.788;2023-04-16T00:18:15;14.67;;;8.57;;
2001;SDS011;1003;48.002;7.788;2023-04-16T00:20:46;15.67;;;9.13;;
2001;SDS011;1003;48.002;7.788;2023-04-16T00:23:14;14.63;;;9.00;;
2001;SDS011;1003;48.002;7.788;2023-04-16T00:25:45;14.97;;;9.17;;
2001;SDS011;1003;48.002;7.788;2023-04-16T00:28:12;14.53;;;8.63;;
2001;SDS011;1003;48.002;7.788;2023-04-16T00:30:41;12.60;;;8.63;;
2001;SDS011;1003;48.002;7.788;2023-04-16T00:33:08;14.93;;;9.47;;
2001;SDS011;1003;48.002;7.788;2023-04-16T00:35:37;14.57;;;8.60;;
2001;SDS011;1003;48.002;7.788;2023-04-16T00:38:07;13.77;;;8.73;;
2001;SDS011;1003;48.002;7.788;2023-04-16T00:40:34;12.87;;;8.07;;
2001;SDS011;1003;48.002;7.788;2023-04-16T00:43:01;13.27;;;7.80;;
2001;SDS011;1003;48.002;7.788;2023-04-16T00:45:29;11.83;;;7.67;;
2001;SDS011;1003;48.002;7.788;2023-04-16T00:47:57;14.30;;;8.40;;
2001;SDS011;1003;48.002;7.788;2023-04-16T00:50:26;11.67;;;7.50;;
2001;SDS011;1003;48.002;7.788;2023-04-16T00:52:56;11.13;;;7.43;;
2001;SDS011;1003;48.002;7.788;2023-04-16T00:55:23;12.17;;;7.97;;
2001;SDS011;1003;48.002;7.788;2023-04-16T00:57:50;12.37;;;7.77;;
2001;SDS011;1003;48.002;7.788;2023-04-16T01:00:18;13.47;;;8.10;;
2001;SDS011;1003;48.002;7.788;2023-04-16T01:02:50;11.47;;;7.80;;
2001;SDS011;1003;48.002;7.788;2023-04-16T01:05:22;12.47;;;8.03;;
2001;SDS011;1003;48.002;7.788;2023-04-16T01:07:49;11.50;;;7.60;;
2001;SDS011;1003;48.002;7.788;2023-04-16T01:10:17;14.53;;;9.17;;
2001;SDS011;1003;48.002;7.788;2023-04-16T01:12:44;13.57;;;8.40;;
2001;SDS011;1003;48.002;7.788;2023-04-16T01:15:14;13.13;;;8.00;;
2001;SDS011;1003;48.002;7.788;2023-04-16T01:17:42;12.70;;;7.83;;
2001;SDS011;1003;48.002;7.788;2023-04-16T01:20:11;14.33;;;9.10;;
2001;SDS011;1003;48.002;7.788;2023-04-16T01:22:42;13.60;;;8.47;;
2001;SDS011;1003;48.002;7.788;2023-04-16T01:25:12;13.43;;;8.13;;
2001;SDS011;1003;48.002;7.788;2023-04-16T01:27:40;12.43;;;8.17;;
2001;SDS011;1003;48.002;7.788;2023-04-16T01:30:08;13.40;;;7.90;;
2001;SDS011;1003;48.002;7.788;2023-04-16T01:32:36;11.17;;;7.63;;
2001;SDS011;1003;48.002;7.788;2023-04-16T01:35:04;13.57;;;8.47;;
2001;SDS011;1003;48.002;7.788;2023-04-16T01:37:32;15.27;;;9.40;;
2001;SDS011;1003;48.002;7.788;2023-04-16T01:40:01;14.10;;;9.63;;
2001;SDS011;1003;48.002;7.788;2023-04-16T01:42:28;12.67;;;7.87;;
2001;SDS011;1003;48.002;7.788;2023-04-16T01:44:56;15.33;;;8.93;;
2001;SDS011;1003;48.002;7.788;2023-04-16T01:47:23;14.20;;;8.97;;
2001;SDS011;1003;48.002;7.788;2023-04-16T01:49:50;12.30;;;7.77;;
2001;SDS011;1003;48.002;7.788;2023-04-16T01:52:17;12.10;;;7.70;;
2001;SDS011;1003;48.002;7.788;2023-04-16T01:54:45;10.37;;;7.27;;
2001;SDS011;1003;48.002;7.788;2023-04-16T01:57:13;12.00;;;7.97;;
2001;SDS011;1003;48.002;7.788;2023-04-16T01:59:41;11.87;;;7.93;;
2001;SDS011;1003;48.002;7.788;2023-04-16T02:02:09;11.93;;;7.70;;
2001;SDS011;1003;48.002;7.788;2023-04-16T02:04:42;12.10;;;7.43;;
2001;SDS011;1003;48.002;7.788;2023-04-16T02:07:11;12.83;;;7.43;;
2001;SDS011;1003;48.002;7.788;2023-04-16T02:09:38;11.43;;;7.67;;
2001;SDS011;1003;48.002;7.788;2023-04-16T02:12:06;13.30;;;7.73;;
2001;SDS011;1003;48.002;7.788;2023-04-16T02:14:36;11.73;;;7.70;;
2001;SDS011;1003;48.002;7.788;2023-04-16T02:17:03;11.50;;;7.17;;
2001;SDS011;1003;48.002;7.788;2023-04-16T02:19:31;9.87;;;7.10;;
2001;SDS011;1003;48.002;7.788;2023-04-16T02:21:58;12.23;;;6.93;;
2001;SDS011;1003;48.002;7.788;2023-04-16T02:24:25;12.00;;;7.40;;
2001;SDS011;1003;48.002;7.788;2023-04-16T02:26:53;10.77;;;6.93;;
2001;SDS011;1003;48.002;7.788;2023-04-16T02:29:22;10.33;;;6.83;;
2001;SDS011;1003;48.002;7.788;2023-04-16T02:31:51;11.27;;;6.70;;
2001;SDS011;1003;48.002;7.788;2023-04-16T02:34:18;12.03;;;7.20;;
2001;SDS011;1003;48.002;7.788;2023-04-16T02:36:45;8.90;;;6.27;;
2001;SDS011;1003;48.002;7.788;2023-04-16T02:41:48;11.00;;;6.93;;
2001;SDS011;1003;48.002;7.788;2023-04-16T02:44:16;10.17;;;6.97;;
2001;SDS011;1003;48.002;7.788;2023-04-16T02:46:43;10.47;;;6.60;;
2001;SDS011;1003;48.002;7.788;2023-04-16T02:49:12;9.67;;;6.20;;
2001;SDS011;1003;48.002;7.788;2023-04-16T02:51:39;9.77;;;6.17;;
2001;SDS011;1003;48.002;7.788;2023-04-16T02:54:06;7.67;;;5.80;;
2001;SDS011;1003;48.002;7.788;2023-04-16T02:56:33;9.33;;;6.20;;
2001;SDS011;1003;48.002;7.788;2023-04-16T02:59:00;9.13;;;6.63;;
2001;SDS011;1003;48.002;7.788;2023-04-16T03:01:27;9.67;;;6.47;;
2001;SDS011;1003;48.002;7.788;2023-04-16T03:03:55;9.70;;;6.10;;
2001;SDS011;1003;48.002;7.788;2023-04-16T03:06:23;11.23;;;6.70;;
2001;SDS011;1003;48.002;7.788;2023-04-16T03:08:51;11.07;;;6.50;;
2001;SDS011;1003;48.002;7.788;2023-04-16T03:11:18;10.50;;;6.47;;
2001;SDS011;1003;48.002;7.788;2023-04-16T03:13:47;8.73;;;6.00;;
2001;SDS011;1003;48.002;7.788;2023-04-16T03:16:20;9.47;;;6.53;;
2001;SDS011;1003;48.002;7.788;2023-04-16T03:18:48;10.17;;;6.47;;
2001;SDS011;1003;48.002;7.788;2023-04-16T03:21:15;8.83;;;6.50;;
2001;SDS011;1003;48.002;7.788;2023-04-16T03:23:43;8.97;;;5.97;;
2001;SDS011;1003;48.002;7.788;2023-04-16T03:26:11;11.23;;;7.20;;
2001;SDS011;1003;48.002;7.788;2023-04-16T03:28:38;9.87;;;6.80;;
2001;SDS011;1003;48.002;7.788;2023-04-16T03:31:05;9.70;;;6.73;;
2001;SDS011;1003;48.002;7.788;2023-04-16T03:33:32;10.13;;;6.37;;
2001;SDS011;1003;48.002;7.788;2023-04-16T03:36:00;8.23;;;5.50;;
2001;SDS011;1003;48.002;7.788;2023-04-16T03:38:27;8.73;;;6.33;;
2001;SDS011;1003;48.002;7.788;2023-04-16T03:40:56;11.27;;;7.17;;
2001;SDS011;1003;48.002;7.788;2023-04-16T03:43:23;10.50;;;6.80;;
2001;SDS011;1003;48.002;7.788;2023-04-16T03:45:53;10.50;;;6.60;;
2001;SDS011;1003;48.002;7.788;2023-04-16T03:48:20;9.50;;;6.67;;
2001;SDS011;1003;48.002;7.788;2023-04-16T03:50:48;9.00;;;6.00;;
2001;SDS011;1003;48.002;7.788;2023-04-16T03:53:17;9.70;;;6.43;;
2001;SDS011;1003;48.002;7.788;2023-04-16T03:55:44;9.47;;;6.50;;
2001;SDS011;1003;48.002;7.788;2023-04-16T03:58:17;9.53;;;6.13;;
2001;SDS011;1003;48.002;7.788;2023-04-16T04:00:45;11.70;;;7.17;;
2001;SDS011;1003;48.002;7.788;2023-04-16T04:03:12;9.60;;;6.30;;
2001;SDS011;1003;48.002;7.788;2023-04-16T04:05:43;9.73;;;7.00;;
2001;SDS011;1003;48.002;7.788;2023-04-16T04:08:10;10.63;;;6.80;;
2001;SDS011;1003;48.002;7.788;2023-04-16T04:10:37;10.17;;;7.27;;
2001;SDS011;1003;48.002;7.788;2023-04-16T04:13:05;11.57;;;7.30;;
2001;SDS011;1003;48.002;7.788;2023-04-16T04:15:34;10.20;;;6.67;;
2001;SDS011;1003;48.002;7.788;2023-04-16T04:18:01;10.87;;;6.67;;
2001;SDS011;1003;48.002;7.788;2023-04-16T04:20:28;9.63;;;6.53;;
2001;SDS011;1003;48.002;7.788;2023-04-16T04:22:55;11.23;;;6.80;;
2001;SDS011;1003;48.002;7.788;2023-04-16T04:25:23;9.07;;;5.87;;
2001;SDS011;1003;48.002;7.788;2023-04-16T04:27:51;11.53;;;7.17;;
2001;SDS011;1003;48.002;7.788;2023-04-16T04:30:18;9.40;;;6.07;;
2001;SDS011;1003;48.002;7.788;2023-04-16T04:32:51;10.30;;;6.60;;
2001;SDS011;1003;48.002;7.788;2023-04-16T04:35:18;9.00;;;5.80;;
2001;SDS011;1003;48.002;7.788;2023-04-16T04:37:46;10.70;;;6.77;;
2001;SDS011;1003;48.002;7.788;2023-04-16T04:40:13;10.00;;;6.50;;
2001;SDS011;1003;48.002;7.788;2023-04-16T04:42:40;8.33;;;5.73;;
2001;SDS011;1003;48.002;7.788;2023-04-16T04:45:08;7.40;;;5.53;;
2001;SDS011;1003;48.002;7.788;2023-04-16T04:47:36;8.87;;;6.13;;
2001;SDS011;1003;48.002;7.788;2023-04-16T04:50:06;10.83;;;6.50;;
2001;SDS011;1003;48.002;7.788;2023-04-16T04:52:35;8.80;;;6.07;;
2001;SDS011;1003;48.002;7.788;2023-04-16T04:55:02;8.83;;;6.13;;
2001;SDS011;1003;48.002;7.788;2023-04-16T04:57:30;10.93;;;7.40;;
2001;SDS011;1003;48.002;7.788;2023-04-16T04:59:57;10.47;;;6.47;;
2001;SDS011;1003;48.002;7.788;2023-04-16T05:02:24;8.63;;;6.00;;
2001;SDS011;1003;48.002;7.788;2023-04-16T05:04:51;10.57;;;7.00;;
2001;SDS011;1003;48.002;7.788;2023-04-16T05:07:19;11.23;;;6.63;;
2001;SDS011;1003;48.002;7.788;2023-04-16T05:09:47;10.60;;;6.47;;
2001;SDS011;1003;48.002;7.788;2023-04-16T05:12:14;11.77;;;7.83;;
2001;SDS011;1003;48.002;7.788;2023-04-16T05:14:41;11.67;;;7.43;;
2001;SDS011;1003;48.002;7.788;2023-04-16T05:17:11;10.53;;;7.10;;
2001;SDS011;1003;48.002;7.788;2023-04-16T05:19:38;10.30;;;7.00;;
2001;SDS011;1003;48.002;7.788;2023-04-16T05:22:05;9.87;;;6.97;;
2001;SDS011;1003;48.002;7.788;2023-04-16T05:24:34;9.00;;;6.47;;
2001;SDS011;1003;48.002;7.788;2023-04-16T05:27:01;9.40;;;6.30;;
2001;SDS011;1003;48.002;7.788;2023-04-16T05:29:28;12.90;;;7.60;;
2001;SDS011;1003;48.002;7.788;2023-04-16T05:31:55;12.83;;;6.80;;
2001;SDS011;1003;48.002;7.788;2023-04-16T05:34:22;10.93;;;7.07;;
2001;SDS011;1003;48.002;7.788;2023-04-16T05:36:50;9.87;;;6.67;;
2001;SDS011;1003;48.002;7.788;2023-04-16T05:39:20;10.57;;;6.67;;
2001;SDS011;1003;48.002;7.788;2023-04-16T05:41:48;9.60;;;6.17;;
2001;SDS011;1003;48.002;7.788;2023-04-16T05:44:16;10.80;;;7.00;;
2001;SDS011;1003;48.002;7.788;2023-04-16T05:46:43;10.67;;;6.90;;
2001;SDS011;1003;48.002;7.788;2023-04-16T05:49:15;11.10;;;6.90;;
2001;SDS011;1003;48.002;7.788;2023-04-16T05:51:44;9.27;;;6.10;;
2001;SDS011;1003;48.002;7.788;2023-04-16T05:54:12;12.03;;;6.90;;
2001;SDS011;1003;48.002;7.788;2023-04-16T05:56:39;11.07;;;7.07;;
2001;SDS011;1003;48.002;7.788;2023-04-16T05:59:08;9.83;;;6.73;;
2001;SDS011;1003;48.002;7.788;2023-04-16T06:01:35;9.90;;;6.83;;
2001;SDS011;1003;48.002;7.788;2023-04-16T06:04:02;12.17;;;7.30;;
2001;SDS011;1003;48.002;7.788;2023-04-16T06:06:30;11.80;;;7.70;;
2001;SDS011;1003;48.002;7.788;2023-04-16T06:08:57;10.63;;;6.70;;
2001;SDS011;1003;48.002;7.788;2023-04-16T06:11:24;11.10;;;7.13;;
2001;SDS011;1003;48.002;7.788;2023-04-16T06:13:52;9.73;;;6.17;;
2001;SDS011;1003;48.002;7.788;2023-04-16T06:16:22;12.13;;;7.50;;
2001;SDS011;1003;48.002;7.788;2023-04-16T06:18:53;10.47;;;7.27;;
2001;SDS011;1003;48.002;7.788;2023-04-16T06:21:23;14.13;;;7.40;;
2001;SDS011;1003;48.002;7.788;2023-04-16T06:23:51;11.40;;;7.47;;
2001;SDS011;1003;48.002;7.788;2023-04-16T06:26:19;9.47;;;5.87;;
2001;SDS011;1003;48.002;7.788;2023-04-16T06:28:47;12.53;;;7.40;;
2001;SDS011;1003;48.002;7.788;2023-04-16T06:31:14;14.40;;;8.50;;
2001;SDS011;1003;48.002;7.788;2023-04-16T06:33:46;15.30;;;9.47;;
2001;SDS011;1003;48.002;7.788;2023-04-16T06:36:20;15.43;;;8.87;;
2001;SDS011;1003;48.002;7.788;2023-04-16T06:38:48;13.73;;;8.43;;
2001;SDS011;1003;48.002;7.788;2023-04-16T06:41:15;14.77;;;8.10;;
2001;SDS011;1003;48.002;7.788;2023-04-16T06:43:42;13.40;;;8.47;;
2001;SDS011;1003;48.002;7.788;2023-04-16T06:46:10;12.43;;;7.50;;
2001;SDS011;1003;48.002;7.788;2023-04-16T06:48:38;13.53;;;8.83;;
2001;SDS011;1003;48.002;7.788;2023-04-16T06:51:10;12.00;;;8.10;;
2001;SDS011;1003;48.002;7.788;2023-04-16T06:53:50;12.23;;;8.07;;
2001;SDS011;1003;48.002;7.788;2023-04-16T06:56:17;12.00;;;7.50;;
2001;SDS011;1003;48.002;7.788;2023-04-16T06:58:45;11.33;;;7.70;;
2001;SDS011;1003;48.002;7.788;2023-04-16T07:01:13;10.67;;;7.17;;
2001;SDS011;1003;48.002;7.788;2023-04-16T07:03:41;11.90;;;7.47;;
2001;SDS011;1003;48.002;7.788;2023-04-16T07:06:09;12.50;;;8.10;;
2001;SDS011;1003;48.002;7.788;2023-04-16T07:08:41;13.80;;;9.17;;
2001;SDS011;1003;48.002;7.788;2023-04-16T07:11:08;11.57;;;7.43;;
2001;SDS011;1003;48.002;7.788;2023-04-16T07:13:36;11.37;;;6.90;;
2001;SDS011;1003;48.002;7.788;2023-04-16T07:16:03;11.47;;;7.00;;
2001;SDS011;1003;48.002;7.788;2023-04-16T07:18:31;11.33;;;6.50;;
2001;SDS011;1003;48.002;7.788;2023-04-16T07:20:58;10.07;;;7.13;;
2001;SDS011;1003;48.002;7.788;2023-04-16T07:23:26;11.43;;;6.67;;
2001;SDS011;1003;48.002;7.788;2023-04-16T07:25:56;11.03;;;6.97;;
2001;SDS011;1003;48.002;7.788;2023-04-16T07:28:23;10.40;;;7.23;;
2001;SDS011;1003;48.002;7.788;2023-04-16T07:30:50;8.70;;;6.37;;
2001;SDS011;1003;48.002;7.788;2023-04-16T07:33:18;8.67;;;6.07;;
2001;SDS011;1003;48.002;7.788;2023-04-16T07:35:45;9.13;;;6.10;;
2001;SDS011;1003;48.002;7.788;2023-04-16T07:38:13;8.97;;;6.00;;
2001;SDS011;1003;48.002;7.788;2023-04-16T07:40:42;7.83;;;5.77;;
2001;SDS011;1003;48.002;7.788;2023-04-16T07:43:09;7.90;;;5.40;;
2001;SDS011;1003;48.002;7.788;2023-04-16T07:45:37;11.00;;;6.33;;
2001;SDS011;1003;48.002;7.788;2023-04-16T07:48:04;8.27;;;5.63;;
2001;SDS011;1003;48.002;7.788;2023-04-16T07:50:32;9.60;;;5.97;;
2001;SDS011;1003;48.002;7.788;2023-04-16T07:53:00;9.03;;;6.20;;
2001;SDS011;1003;48.002;7.788;2023-04-16T07:55:27;8.00;;;5.70;;
2001;SDS011;1003;48.002;7.788;2023-04-16T07:57:56;8.33;;;6.20;;
2001;SDS011;1003;48.002;7.788;2023-04-16T08:00:23;9.70;;;6.10;;
2001;SDS011;1003;48.002;7.788;2023-04-16T08:02:50;9.23;;;6.73;;
2001;SDS011;1003;48.002;7.788;2023-04-16T08:05:18;8.50;;;6.53;;
2001;SDS011;1003;48.002;7.788;2023-04-16T08:07:46;9.07;;;6.87;;
2001;SDS011;1003;48.002;7.788;2023-04-16T08:10:13;9.30;;;6.23;;
2001;SDS011;1003;48.002;7.788;2023-04-16T08:12:41;8.93;;;6.60;;
2001;SDS011;1003;48.002;7.788;2023-04-16T08:15:10;10.70;;;7.20;;
2001;SDS011;1003;48.002;7.788;2023-04-16T08:17:37;9.07;;;6.33;;
2001;SDS011;1003;48.002;7.788;2023-04-16T08:20:05;10.30;;;7.80;;
2001;SDS011;1003;48.002;7.788;2023-04-16T08:22:33;11.03;;;6.93;;
2001;SDS011;1003;48.002;7.788;2023-04-16T08:25:00;9.20;;;6.50;;
2001;SDS011;1003;48.002;7.788;2023-04-16T08:27:28;9.33;;;6.33;;
2001;SDS011;1003;48.002;7.788;2023-04-16T08:29:55;10.57;;;6.97;;
2001;SDS011;1003;48.002;7.788;2023-04-16T08:32:24;9.30;;;6.50;;
2001;SDS011;1003;48.002;7.788;2023-04-16T08:34:52;9.90;;;6.53;;
2001;SDS011;1003;48.002;7.788;2023-04-16T08:37:19;8.03;;;5.60;;
2001;SDS011;1003;48.002;7.788;2023-04-16T08:39:46;8.57;;;5.90;;
2001;SDS011;1003;48.002;7.788;2023-04-16T08:42:17;10.93;;;6.77;;
2001;SDS011;1003;48.002;7.788;2023-04-16T08:44:55;6.73;;;5.53;;
2001;SDS011;1003;48.002;7.788;2023-04-16T08:47:34;8.83;;;5.93;;
2001;SDS011;1003;48.002;7.788;2023-04-16T08:50:02;8.90;;;6.27;;
2001;SDS011;1003;48.002;7.788;2023-04-16T08:52:31;14.83;;;11.60;;
2001;SDS011;1003;48.002;7.788;2023-04-16T08:55:03;9.30;;;6.33;;
2001;SDS011;1003;48.002;7.788;2023-04-16T08:57:36;9.23;;;5.80;;
2001;SDS011;1003;48.002;7.788;2023-04-16T09:00:10;11.70;;;6.77;;
2001;SDS011;1003;48.002;7.788;2023-04-16T09:02:39;12.80;;;7.00;;
2001;SDS011;1003;48.002;7.788;2023-04-16T09:05:07;9.23;;;6.53;;
2001;SDS011;1003;48.002;7.788;2023-04-16T09:07:35;8.77;;;5.93;;
2001;SDS011;1003;48.002;7.788;2023-04-16T09:10:04;8.93;;;5.93;;
2001;SDS011;1003;48.002;7.788;2023-04-16T09:12:34;9.90;;;6.63;;
2001;SDS011;1003;48.002;7.788;2023-04-16T09:15:01;12.77;;;6.13;;
2001;SDS011;1003;48.002;7.788;2023-04-16T09:17:33;10.10;;;6.20;;
2001;SDS011;1003;48.002;7.788;2023-04-16T09:20:01;10.50;;;6.53;;
2001;SDS011;1003;48.002;7.788;2023-04-16T09:22:32;10.03;;;6.23;;
2001;SDS011;1003;48.002;7.788;2023-04-16T09:24:59;11.37;;;6.60;;
2001;SDS011;1003;48.002;7.788;2023-04-16T09:27:27;9.63;;;6.87;;
2001;SDS011;1003;48.002;7.788;2023-04-16T09:29:55;10.33;;;6.60;;
2001;SDS011;1003;48.002;7.788;2023-04-16T09:32:23;10.03;;;6.33;;
2001;SDS011;1003;48.002;7.788;2023-04-16T09:34:53;9.60;;;6.60;;
2001;SDS011;1003;48.002;7.788;2023-04-16T09:37:24;9.80;;;5.97;;
2001;SDS011;1003;48.002;7.788;2023-04-16T09:39:54;9.47;;;5.90;;
2001;SDS011;1003;48.002;7.788;2023-04-16T09:42:24;11.77;;;6.53;;
2001;SDS011;1003;48.002;7.788;2023-04-16T09:44:52;13.30;;;6.73;;
2001;SDS011;1003;48.002;7.788;2023-04-16T09:47:20;11.73;;;7.37;;
2001;SDS011;1003;48.002;7.788;2023-04-16T09:49:49;11.23;;;6.57;;
2001;SDS011;1003;48.002;7.788;2023-04-16T09:52:17;10.80;;;6.63;;
2001;SDS011;1003;48.002;7.788;2023-04-16T09:54:47;10.47;;;6.17;;
2001;SDS011;1003;48.002;7.788;2023-04-16T09:57:19;9.70;;;6.73;;
2001;SDS011;1003;48.002;7.788;2023-04-16T09:59:47;11.77;;;7.23;;
2001;SDS011;1003;48.002;7.788;2023-04-16T10:02:18;10.93;;;6.57;;
2001;SDS011;1003;48.002;7.788;2023-04-16T10:04:46;11.60;;;6.97;;
2001;SDS011;1003;48.002;7.788;2023-04-16T10:07:14;11.97;;;7.30;;
2001;SDS011;1003;48.002;7.788;2023-04-16T10:09:42;10.67;;;6.77;;
2001;SDS011;1003;48.002;7.788;2023-04-16T10:12:11;10.97;;;6.97;;
2001;SDS011;1003;48.002;7.788;2023-04-16T10:14:38;10.37;;;6.67;;
2001;SDS011;1003;48.002;7.788;2023-04-16T10:17:05;13.07;;;7.83;;
2001;SDS011;1003;48.002;7.788;2023-04-16T10:19:33;10.90;;;7.13;;
2001;SDS011;1003;48.002;7.788;2023-04-16T10:22:01;14.20;;;8.30;;
2001;SDS011;1003;48.002;7.788;2023-04-16T10:24:29;12.00;;;7.77;;
2001;SDS011;1003;48.002;7.788;2023-04-16T10:26:57;14.80;;;8.27;;
2001;SDS011;1003;48.002;7.788;2023-04-16T10:29:27;12.80;;;8.07;;
2001;SDS011;1003;48.002;7.788;2023-04-16T10:31:56;13.20;;;7.70;;
2001;SDS011;1003;48.002;7.788;2023-04-16T10:34:25;15.53;;;7.90;;
2001;SDS011;1003;48.002;7.788;2023-04-16T10:36:54;13.63;;;8.10;;
2001;SDS011;1003;48.002;7.788;2023-04-16T10:39:24;12.80;;;8.27;;
2001;SDS011;1003;48.002;7.788;2023-04-16T10:42:05;13.07;;;7.70;;
2001;SDS011;1003;48.002;7.788;2023-04-16T11:33:08;12.50;;;7.20;;
2001;SDS011;1003;48.002;7.788;2023-04-16T11:35:36;9.27;;;5.70;;
2001;SDS011;1003;48.002;7.788;2023-04-16T11:38:05;11.47;;;7.27;;
2001;SDS011;1003;48.002;7.788;2023-04-16T11:40:32;10.77;;;6.63;;
2001;SDS011;1003;48.002;7.788;2023-04-16T11:43:00;13.07;;;6.97;;
2001;SDS011;1003;48.002;7.788;2023-04-16T11:45:28;11.43;;;6.87;;
2001;SDS011;1003;48.002;7.788;2023-04-16T11:47:55;10.57;;;6.60;;
2001;SDS011;1003;48.002;7.788;2023-04-16T11:50:24;10.50;;;6.30;;
2001;SDS011;1003;48.002;7.788;2023-04-16T11:52:54;10.77;;;6.30;;
2001;SDS011;1003;48.002;7.788;2023-04-16T11:55:28;10.37;;;6.70;;
2001;SDS011;1003;48.002;7.788;2023-04-16T11:57:55;9.57;;;6.53;;
2001;SDS011;1003;48.002;7.788;2023-04-16T12:00:22;11.17;;;6.80;;
2001;SDS011;1003;48.002;7.788;2023-04-16T12:02:50;9.43;;;6.30;;
2001;SDS011;1003;48.002;7.788;2023-04-16T12:05:26;11.20;;;6.53;;
2001;SDS011;1003;48.002;7.788;2023-04-16T12:07:58;12.13;;;6.80;;
2001;SDS011;1003;48.002;7.788;2023-04-16T12:10:27;11.83;;;6.90;;
2001;SDS011;1003;48.002;7.788;2023-04-16T12:13:07;10.20;;;6.27;;
2001;SDS011;1003;48.002;7.788;2023-04-16T12:15:45;10.30;;;6.97;;
2001;SDS011;1003;48.002;7.788;2023-04-16T12:18:13;9.50;;;5.90;;
2001;SDS011;1003;48.002;7.788;2023-04-16T12:20:42;10.27;;;6.50;;
2001;SDS011;1003;48.002;7.788;2023-04-16T12:23:20;10.10;;;6.40;;
2001;SDS011;1003;48.002;7.788;2023-04-16T12:25:49;9.73;;;6.27;;
2001;SDS011;1003;48.002;7.788;2023-04-16T12:28:25;10.47;;;6.30;;
2001;SDS011;1003;48.002;7.788;2023-04-16T12:30:54;10.13;;;6.53;;
2001;SDS011;1003;48.002;7.788;2023-04-16T12:33:22;11.07;;;6.60;;
2001;SDS011;1003;48.002;7.788;2023-04-16T12:35:50;11.03;;;6.87;;
2001;SDS011;1003;48.002;7.788;2023-04-16T12:38:21;11.13;;;6.93;;
2001;SDS011;1003;48.002;7.788;2023-04-16T12:40:49;10.90;;;6.73;;
2001;SDS011;1003;48.002;7.788;2023-04-16T12:43:20;11.97;;;6.90;;
2001;SDS011;1003;48.002;7.788;2023-04-16T12:45:49;14.13;;;7.37;;
2001;SDS011;1003;48.002;7.788;2023-04-16T12:48:16;12.80;;;7.73;;
2001;SDS011;1003;48.002;7.788;2023-04-16T12:50:43;10.00;;;6.17;;
2001;SDS011;1003;48.002;7.788;2023-04-16T12:53:12;10.87;;;6.60;;
2001;SDS011;1003;48.002;7.788;2023-04-16T12:55:39;10.47;;;7.43;;
2001;SDS011;1003;48.002;7.788;2023-04-16T12:58:07;12.40;;;7.33;;
2001;SDS011;1003;48.002;7.788;2023-04-16T13:00:34;8.93;;;6.00;;
2001;SDS011;1003;48.002;7.788;2023-04-16T13:03:01;10.77;;;5.87;;
2001;SDS011;1003;48.002;7.788;2023-04-16T13:05:28;13.07;;;7.63;;
2001;SDS011;1003;48.002;7.788;2023-04-16T13:07:55;10.73;;;6.90;;
2001;SDS011;1003;48.002;7.788;2023-04-16T13:10:23;12.10;;;7.10;;
2001;SDS011;1003;48.002;7.788;2023-04-16T13:12:51;11.33;;;7.10;;
2001;SDS011;1003;48.002;7.788;2023-04-16T13:15:18;11.80;;;7.50;;
2001;SDS011;1003;48.002;7.788;2023-04-16T13:17:45;11.90;;;7.53;;
2001;SDS011;1003;48.002;7.788;2023-04-16T13:20:12;11.57;;;7.40;;
2001;SDS011;1003;48.002;7.788;2023-04-16T13:22:40;14.73;;;10.07;;
2001;SDS011;1003;48.002;7.788;2023-04-16T13:25:07;12.60;;;7.40;;
2001;SDS011;1003;48.002;7.788;2023-04-16T13:27:36;11.37;;;6.77;;
2001;SDS011;1003;48.002;7.788;2023-04-16T13:30:03;11.27;;;7.30;;
2001;SDS011;1003;48.002;7.788;2023-04-16T13:32:32;11.57;;;7.80;;
2001;SDS011;1003;48.002;7.788;2023-04-16T13:34:59;10.23;;;6.63;;
2001;SDS011;1003;48.002;7.788;2023-04-16T13:37:26;10.33;;;6.77;;
2001;SDS011;1003;48.002;7.788;2023-04-16T13:39:53;10.70;;;6.47;;
2001;SDS011;1003;48.002;7.788;2023-04-16T13:42:20;11.90;;;6.97;;
2001;SDS011;1003;48.002;7.788;2023-04-16T13:44:48;9.87;;;6.53;;
2001;SDS011;1003;48.002;7.788;2023-04-16T13:47:18;9.13;;;6.17;;
2001;SDS011;1003;48.002;7.788;2023-04-16T13:49:45;10.67;;;6.77;;
2001;SDS011;1003;48.002;7.788;2023-04-16T13:52:12;9.30;;;6.43;;
2001;SDS011;1003;48.002;7.788;2023-04-16T13:54:39;9.73;;;6.53;;
2001;SDS011;1003;48.002;7.788;2023-04-16T13:57:06;11.60;;;7.13;;
2001;SDS011;1003;48.002;7.788;2023-04-16T13:59:33;8.63;;;5.60;;
2001;SDS011;1003;48.002;7.788;2023-04-16T14:02:02;10.07;;;6.50;;
2001;SDS011;1003;48.002;7.788;2023-04-16T14:04:29;10.90;;;7.20;;
2001;SDS011;1003;48.002;7.788;2023-04-16T14:06:56;11.10;;;6.87;;
2001;SDS011;1003;48.002;7.788;2023-04-16T14:09:23;9.70;;;6.97;;
2001;SDS011;1003;48.002;7.788;2023-04-16T14:11:51;12.27;;;8.00;;
2001;SDS011;1003;48.002;7.788;2023-04-16T14:14:18;10.83;;;6.87;;
2001;SDS011;1003;48.002;7.788;2023-04-16T14:16:45;10.13;;;6.60;;
2001;SDS011;1003;48.002;7.788;2023-04-16T14:19:14;10.30;;;6.73;;
2001;SDS011;1003;48.002;7.788;2023-04-16T14:21:41;9.43;;;6.30;;
2001;SDS011;1003;48.002;7.788;2023-04-16T14:24:08;10.20;;;6.63;;
2001;SDS011;1003;48.002;7.788;2023-04-16T14:26:36;9.87;;;6.83;;
2001;SDS011;1003;48.002;7.788;2023-04-16T14:29:04;15.30;;;7.20;;
2001;SDS011;1003;48.002;7.788;2023-04-16T14:31:31;11.63;;;6.63;;
2001;SDS011;1003;48.002;7.788;2023-04-16T14:33:58;12.60;;;7.67;;
2001;SDS011;1003;48.002;7.788;2023-04-16T14:36:27;9.40;;;6.30;;
2001;SDS011;1003;48.002;7.788;2023-04-16T14:38:55;13.33;;;6.57;;
2001;SDS011;1003;48.002;7.788;2023-04-16T14:41:22;10.70;;;7.23;;
2001;SDS011;1003;48.002;7.788;2023-04-16T14:43:50;11.70;;;7.13;;
2001;SDS011;1003;48.002;7.788;2023-04-16T14:46:17;12.27;;;7.23;;
2001;SDS011;1003;48.002;7.788;2023-04-16T14:48:44;13.43;;;7.03;;
2001;SDS011;1003;48.002;7.788;2023-04-16T14:51:11;13.27;;;7.47;;
2001;SDS011;1003;48.002;7.788;2023-04-16T14:53:39;12.20;;;6.90;;
2001;SDS011;1003;48.002;7.788;2023-04-16T14:56:06;11.40;;;6.57;;
2001;SDS011;1003;48.002;7.788;2023-04-16T14:58:33;14.03;;;7.60;;
2001;SDS011;1003;48.002;7.788;2023-04-16T15:01:01;11.90;;;6.83;;
2001;SDS011;1003;48.002;7.788;2023-04-16T15:03:28;11.30;;;7.27;;
2001;SDS011;1003;48.002;7.788;2023-04-16T15:05:55;15.00;;;7.53;;
2001;SDS011;1003;48.002;7.788;2023-04-16T15:08:23;11.90;;;7.60;;
2001;SDS011;1003;48.002;7.788;2023-04-16T15:10:51;12.77;;;7.70;;
2001;SDS011;1003;48.002;7.788;2023-04-16T15:13:18;12.13;;;7.70;;
2001;SDS011;1003;48.002;7.788;2023-04-16T15:15:45;12.53;;;7.57;;
2001;SDS011;1003;48.002;7.788;2023-04-16T15:18:12;12.73;;;7.67;;
2001;SDS011;1003;48.002;7.788;2023-04-16T15:20:40;13.43;;;7.77;;
2001;SDS011;1003;48.002;7.788;2023-04-16T15:23:07;13.67;;;7.73;;
2001;SDS011;1003;48.002;7.788;2023-04-16T15:25:34;12.53;;;7.77;;
2001;SDS011;1003;48.002;7.788;2023-04-16T15:28:03;11.50;;;7.33;;
2001;SDS011;1003;48.002;7.788;2023-04-16T15:30:30;11.03;;;7.03;;
2001;SDS011;1003;48.002;7.788;2023-04-16T15:32:57;13.40;;;7.90;;
2001;SDS011;1003;48.002;7.788;2023-04-16T15:35:24;10.87;;;6.63;;
2001;SDS011;1003;48.002;7.788;2023-04-16T15:37:51;11.50;;;6.80;;
2001;SDS011;1003;48.002;7.788;2023-04-16T15:40:19;12.57;;;7.67;;
2001;SDS011;1003;48.002;7.788;2023-04-16T15:42:46;13.13;;;7.33;;
2001;SDS011;1003;48.002;7.788;2023-04-16T15:45:15;11.13;;;6.67;;
2001;SDS011;1003;48.002;7.788;2023-04-16T15:47:42;11.40;;;6.57;;
2001;SDS011;1003;48.002;7.788;2023-04-16T15:50:11;10.17;;;5.93;;
2001;SDS011;1003;48.002;7.788;2023-04-16T15:52:39;11.20;;;6.83;;
2001;SDS011;1003;48.002;7.788;2023-04-16T15:55:06;10.10;;;6.10;;
2001;SDS011;1003;48.002;7.788;2023-04-16T15:57:35;10.30;;;5.80;;
2001;SDS011;1003;48.002;7.788;2023-04-16T16:00:02;9.07;;;5.60;;
2001;SDS011;1003;48.002;7.788;2023-04-16T16:02:38;9.97;;;5.77;;